createdAt,value
2017-09-03T03:03:09.257Z,17.33
2017-09-03T03:05:37.604Z,18.13
2017-09-03T03:08:05.960Z,18.13
2017-09-03T03:10:34.328Z,16.37
2017-09-03T03:13:02.684Z,13.67
2017-09-03T03:15:31.298Z,18.60
2017-09-03T03:17:59.665Z,19.67
2017-09-03T03:20:28.292Z,16.00
2017-09-03T03:22:56.655Z,15.63
2017-09-03T03:25:25.276Z,17.00
2017-09-03T03:27:53.638Z,20.30
2017-09-03T03:30:21.993Z,16.43
2017-09-03T03:32:50.358Z,16.20
2017-09-03T03:35:18.712Z,16.17
2017-09-03T03:37:47.071Z,20.73
2017-09-03T03:40:15.251Z,15.40
2017-09-03T03:42:43.618Z,16.67
2017-09-03T03:45:11.973Z,17.40
2017-09-03T03:47:40.337Z,21.40
2017-09-03T03:50:08.698Z,19.50
2017-09-03T03:52:37.063Z,19.33
2017-09-03T03:55:05.429Z,19.77
2017-09-03T03:57:33.778Z,18.27
2017-09-03T04:00:02.137Z,18.57
2017-09-03T04:02:30.513Z,21.80
2017-09-03T04:04:58.864Z,20.53
2017-09-03T04:07:27.987Z,17.97
2017-09-03T04:09:56.686Z,20.40
2017-09-03T04:12:25.042Z,20.40
2017-09-03T04:14:53.399Z,20.23
2017-09-03T04:17:21.776Z,23.43
2017-09-03T04:19:50.136Z,17.10
2017-09-03T04:22:18.492Z,19.33
2017-09-03T04:24:46.856Z,23.40
2017-09-03T04:27:15.482Z,20.70
2017-09-03T04:29:43.832Z,27.83
2017-09-03T04:32:12.200Z,18.50
2017-09-03T04:34:41.253Z,19.00
2017-09-03T04:37:09.671Z,17.30
2017-09-03T04:39:38.037Z,21.30
2017-09-03T04:42:06.389Z,16.53
2017-09-03T04:44:34.761Z,18.90
2017-09-03T04:47:03.128Z,20.07
2017-09-03T04:49:31.481Z,19.93
2017-09-03T04:51:59.829Z,19.23
2017-09-03T04:54:28.209Z,18.30
2017-09-03T04:56:56.561Z,19.73
2017-09-03T04:59:24.925Z,20.37
2017-09-03T05:01:53.292Z,21.00
2017-09-03T05:04:21.644Z,17.27
2017-09-03T05:06:49.993Z,21.50
2017-09-03T05:09:18.386Z,16.77
2017-09-03T05:11:47.504Z,20.67
2017-09-03T05:14:15.852Z,26.13
2017-09-03T05:16:44.224Z,20.50
2017-09-03T05:19:12.572Z,26.03
2017-09-03T05:21:40.928Z,22.67
2017-09-03T05:24:09.302Z,25.10
2017-09-03T05:26:37.658Z,21.37
2017-09-03T05:29:06.697Z,18.87
2017-09-03T05:31:35.073Z,21.63
2017-09-03T05:34:03.681Z,22.10
2017-09-03T05:36:32.041Z,20.10
2017-09-03T05:39:00.601Z,18.87
2017-09-03T05:41:28.958Z,24.97
2017-09-03T05:43:57.311Z,17.20
2017-09-03T05:46:25.680Z,19.40
2017-09-03T05:48:54.025Z,19.60
2017-09-03T05:51:22.377Z,18.90
2017-09-03T05:53:50.744Z,20.97
2017-09-03T05:56:19.108Z,17.63
2017-09-03T05:58:47.460Z,14.60
2017-09-03T06:01:15.845Z,18.53
2017-09-03T06:03:44.194Z,16.40
2017-09-03T06:06:12.549Z,22.53
2017-09-03T06:08:41.690Z,18.43
2017-09-03T06:11:10.051Z,14.20
2017-09-03T06:13:38.405Z,18.37
2017-09-03T06:16:07.551Z,18.37
2017-09-03T06:18:36.170Z,15.80
2017-09-03T06:21:04.522Z,16.43
2017-09-03T06:23:32.905Z,19.87
2017-09-03T06:26:01.252Z,17.53
2017-09-03T06:28:29.613Z,14.03
2017-09-03T06:30:57.982Z,17.40
2017-09-03T06:33:26.328Z,16.80
2017-09-03T06:35:54.690Z,18.90
2017-09-03T06:38:23.057Z,18.60
2017-09-03T06:40:51.409Z,14.30
2017-09-03T06:43:19.765Z,16.43
2017-09-03T06:45:48.130Z,15.07
2017-09-03T06:48:17.517Z,14.13
2017-09-03T06:50:45.861Z,14.67
2017-09-03T06:53:14.229Z,11.97
2017-09-03T06:55:42.580Z,12.43
2017-09-03T06:58:10.938Z,16.17
2017-09-03T07:00:39.307Z,12.50
2017-09-03T07:03:08.680Z,13.30
2017-09-03T07:05:37.024Z,10.53
2017-09-03T07:08:06.161Z,12.80
2017-09-03T07:10:34.520Z,10.67
2017-09-03T07:13:03.114Z,15.03
2017-09-03T07:15:31.705Z,13.30
2017-09-03T07:18:00.114Z,10.20
2017-09-03T07:20:28.474Z,10.80
2017-09-03T07:22:56.850Z,10.40
2017-09-03T07:25:25.198Z,9.70
2017-09-03T07:27:54.359Z,18.23
2017-09-03T07:30:22.728Z,13.23
2017-09-03T07:32:51.121Z,11.37
2017-09-03T07:35:19.474Z,14.30
2017-09-03T07:37:47.846Z,11.00
2017-09-03T07:40:16.197Z,11.93
2017-09-03T07:42:44.549Z,10.27
2017-09-03T07:45:12.729Z,10.33
2017-09-03T07:47:41.153Z,13.00
2017-09-03T07:50:09.496Z,14.43
2017-09-03T07:52:37.678Z,11.90
2017-09-03T07:55:06.025Z,13.50
2017-09-03T07:57:34.405Z,12.67
2017-09-03T08:00:02.764Z,10.00
2017-09-03T08:02:31.112Z,11.37
2017-09-03T08:04:59.274Z,12.43
2017-09-03T08:07:27.678Z,10.63
2017-09-03T08:09:56.016Z,13.80
2017-09-03T08:12:24.366Z,10.67
2017-09-03T08:14:52.741Z,10.70
2017-09-03T08:17:21.102Z,10.60
2017-09-03T08:19:49.453Z,12.20
2017-09-03T08:22:17.813Z,10.97
2017-09-03T08:24:46.485Z,8.97
2017-09-03T08:27:14.851Z,11.13
2017-09-03T08:29:43.233Z,8.20
2017-09-03T08:32:11.577Z,10.37
2017-09-03T08:34:39.741Z,11.40
2017-09-03T08:37:08.116Z,9.37
2017-09-03T08:39:36.460Z,9.43
2017-09-03T08:42:04.802Z,7.03
2017-09-03T08:44:33.180Z,10.67
2017-09-03T08:47:01.528Z,11.17
2017-09-03T08:49:29.872Z,9.90
2017-09-03T08:51:58.341Z,10.20
2017-09-03T08:54:26.694Z,11.30
2017-09-03T08:56:55.048Z,16.57
2017-09-03T08:59:23.408Z,7.73
2017-09-03T09:01:51.790Z,7.00
2017-09-03T09:04:20.394Z,8.00
2017-09-03T09:06:48.755Z,6.97
2017-09-03T09:09:17.100Z,5.93
2017-09-03T09:11:45.709Z,7.77
2017-09-03T09:14:13.880Z,10.03
2017-09-03T09:16:42.224Z,8.70
2017-09-03T09:19:10.388Z,10.80
2017-09-03T09:21:38.551Z,10.60
2017-09-03T09:24:06.705Z,7.33
2017-09-03T09:26:35.142Z,7.57
2017-09-03T09:29:03.313Z,6.43
2017-09-03T09:31:32.164Z,12.63
2017-09-03T09:34:00.512Z,8.23
2017-09-03T09:36:28.972Z,9.47
2017-09-03T09:38:57.319Z,9.77
2017-09-03T09:41:25.667Z,7.23
2017-09-03T09:43:54.034Z,6.20
2017-09-03T09:46:22.276Z,7.57
2017-09-03T09:48:50.435Z,5.73
2017-09-03T09:51:18.618Z,7.30
2017-09-03T09:53:46.777Z,5.80
2017-09-03T09:56:30.313Z,6.43
2017-09-03T09:58:58.472Z,7.97
2017-09-03T10:01:26.813Z,5.13
2017-09-03T10:03:55.857Z,6.23
2017-09-03T10:06:24.203Z,5.63
2017-09-03T10:08:52.561Z,7.33
2017-09-03T10:11:20.930Z,6.63
2017-09-03T10:13:49.315Z,5.37
2017-09-03T10:16:17.661Z,6.03
2017-09-03T10:18:46.025Z,7.70
2017-09-03T10:21:14.189Z,10.70
2017-09-03T10:23:42.353Z,8.67
2017-09-03T10:26:10.802Z,6.40
2017-09-03T10:28:39.406Z,6.63
2017-09-03T10:31:07.764Z,6.73
2017-09-03T10:33:36.220Z,7.13
2017-09-03T10:36:04.574Z,8.63
2017-09-03T10:38:32.922Z,7.30
2017-09-03T10:41:01.417Z,5.63
2017-09-03T10:43:29.873Z,6.10
2017-09-03T10:45:58.230Z,10.33
2017-09-03T10:48:26.597Z,10.07
2017-09-03T10:50:55.006Z,4.33
2017-09-03T10:53:23.373Z,7.10
2017-09-03T10:55:51.765Z,4.97
2017-09-03T10:58:20.145Z,8.10
2017-09-03T11:00:48.499Z,9.53
2017-09-03T11:03:16.845Z,10.50
2017-09-03T11:05:45.964Z,11.70
2017-09-03T11:08:14.393Z,6.13
2017-09-03T11:10:42.769Z,6.00
2017-09-03T11:13:11.149Z,12.27
2017-09-03T11:15:39.504Z,11.50
2017-09-03T11:18:07.896Z,9.80
2017-09-03T11:20:36.284Z,10.40
2017-09-03T11:23:04.893Z,13.60
2017-09-03T11:25:33.256Z,13.93
2017-09-03T11:28:01.617Z,9.70
2017-09-03T11:30:29.969Z,8.27
2017-09-03T11:32:58.329Z,7.97
2017-09-03T11:35:26.674Z,7.90
2017-09-03T11:37:55.016Z,8.60
2017-09-03T11:40:23.381Z,6.90
2017-09-03T11:42:51.772Z,7.50
2017-09-03T11:45:20.358Z,9.37
2017-09-03T11:47:48.715Z,8.67
2017-09-03T11:50:17.109Z,10.67
2017-09-03T11:52:45.458Z,7.40
2017-09-03T11:55:13.813Z,7.63
2017-09-03T11:57:42.156Z,5.10
2017-09-03T12:00:10.851Z,8.60
2017-09-03T12:02:39.399Z,8.70
2017-09-03T12:05:07.759Z,11.73
2017-09-03T12:07:36.105Z,5.20
2017-09-03T12:10:04.505Z,5.30
2017-09-03T12:12:32.865Z,7.10
2017-09-03T12:15:01.456Z,6.50
2017-09-03T12:17:29.904Z,6.90
2017-09-03T12:19:58.296Z,5.70
2017-09-03T12:22:26.634Z,4.60
2017-09-03T12:24:55.024Z,4.47
2017-09-03T12:27:23.379Z,5.20
2017-09-03T12:29:51.716Z,4.60
2017-09-03T12:32:20.271Z,4.60
2017-09-03T12:34:48.996Z,7.73
2017-09-03T12:37:17.413Z,5.50
2017-09-03T12:39:45.832Z,3.70
2017-09-03T12:42:14.186Z,7.30
2017-09-03T12:44:42.533Z,3.93
2017-09-03T12:47:10.887Z,4.00
2017-09-03T12:49:39.230Z,8.00
2017-09-03T12:52:08.168Z,6.30
2017-09-03T12:54:36.652Z,5.67
2017-09-03T12:57:05.029Z,6.47
2017-09-03T12:59:33.508Z,5.40
2017-09-03T13:02:01.885Z,5.47
2017-09-03T13:04:30.289Z,3.77
2017-09-03T13:06:58.633Z,4.67
2017-09-03T13:09:26.999Z,3.67
2017-09-03T13:11:55.701Z,5.17
2017-09-03T13:14:24.100Z,5.57
2017-09-03T13:16:52.460Z,4.17
2017-09-03T13:19:20.626Z,3.00
2017-09-03T13:21:48.969Z,4.17
2017-09-03T13:24:17.252Z,6.20
2017-09-03T13:26:45.790Z,3.33
2017-09-03T13:29:14.297Z,4.00
2017-09-03T13:31:42.665Z,2.97
2017-09-03T13:34:11.047Z,7.70
2017-09-03T13:36:39.400Z,2.40
2017-09-03T13:39:08.147Z,2.43
2017-09-03T13:41:36.666Z,2.77
2017-09-03T13:44:05.051Z,4.20
2017-09-03T13:46:33.425Z,3.13
2017-09-03T13:49:01.813Z,2.83
2017-09-03T13:51:30.389Z,4.73
2017-09-03T13:53:58.561Z,5.23
2017-09-03T13:56:27.141Z,4.87
2017-09-03T13:58:55.545Z,2.40
2017-09-03T14:01:23.916Z,2.83
2017-09-03T14:03:52.308Z,2.13
2017-09-03T14:06:20.691Z,3.63
2017-09-03T14:08:49.056Z,1.70
2017-09-03T14:11:17.424Z,1.67
2017-09-03T14:13:45.894Z,3.20
2017-09-03T14:16:14.309Z,2.90
2017-09-03T14:18:42.698Z,2.00
2017-09-03T14:21:11.056Z,3.33
2017-09-03T14:23:39.681Z,1.87
2017-09-03T14:26:08.042Z,3.57
2017-09-03T14:28:36.382Z,2.63
2017-09-03T14:31:05.737Z,2.20
2017-09-03T14:33:34.090Z,2.60
2017-09-03T14:36:03.205Z,1.90
2017-09-03T14:38:31.571Z,3.07
2017-09-03T14:40:59.926Z,3.30
2017-09-03T14:43:28.521Z,3.47
2017-09-03T14:45:56.931Z,3.57
2017-09-03T14:48:25.537Z,3.63
2017-09-03T14:50:54.653Z,3.57
2017-09-03T14:53:23.022Z,5.40
2017-09-03T14:55:51.665Z,5.30
2017-09-03T14:58:20.020Z,3.53
2017-09-03T15:00:48.885Z,3.80
2017-09-03T15:03:17.374Z,3.73
2017-09-03T15:05:45.993Z,4.47
2017-09-03T15:08:14.352Z,6.17
2017-09-03T15:10:42.712Z,4.30
2017-09-03T15:13:10.878Z,4.60
2017-09-03T15:15:39.239Z,5.33
2017-09-03T15:18:07.588Z,2.77
2017-09-03T15:20:35.953Z,2.97
2017-09-03T15:23:04.123Z,3.13
2017-09-03T15:25:32.847Z,5.43
2017-09-03T15:30:54.395Z,3.00
2017-09-03T15:36:37.906Z,2.33
2017-09-03T15:39:10.570Z,4.67
2017-09-03T15:41:44.142Z,2.80
2017-09-03T15:44:18.162Z,2.90
2017-09-03T15:46:54.811Z,4.60
2017-09-03T15:49:39.731Z,4.40
2017-09-03T15:55:17.547Z,5.17
2017-09-03T15:57:56.351Z,3.67
2017-09-03T16:09:06.991Z,2.50
2017-09-03T16:11:35.359Z,3.07
2017-09-03T16:14:03.702Z,3.10
2017-09-03T16:16:32.065Z,3.10
2017-09-03T16:19:00.421Z,3.50
2017-09-03T16:21:29.537Z,4.00
2017-09-03T16:23:57.897Z,6.03
2017-09-03T16:26:26.241Z,5.93
2017-09-03T16:28:56.229Z,3.90
2017-09-03T16:31:24.592Z,4.77
2017-09-03T16:33:52.946Z,4.73
2017-09-03T16:36:21.555Z,3.13
2017-09-03T16:38:49.918Z,5.37
2017-09-03T16:41:18.261Z,6.60
2017-09-03T16:43:46.610Z,5.83
2017-09-03T16:46:14.791Z,5.87
2017-09-03T16:48:43.210Z,5.93
2017-09-03T16:51:11.366Z,5.00
2017-09-03T16:53:39.536Z,7.07
2017-09-03T16:56:07.706Z,8.33
2017-09-03T16:58:35.859Z,5.73
2017-09-03T17:01:04.045Z,6.50
2017-09-03T17:03:32.196Z,3.23
2017-09-03T17:06:00.349Z,3.37
2017-09-03T17:08:28.526Z,3.37
2017-09-03T17:10:56.681Z,6.47
2017-09-03T17:13:24.852Z,3.80
2017-09-03T17:15:53.033Z,3.73
2017-09-03T17:18:21.200Z,3.37
2017-09-03T17:20:49.365Z,5.60
2017-09-03T17:23:17.537Z,2.70
2017-09-03T17:28:49.021Z,4.40
2017-09-03T17:34:38.446Z,2.90
2017-09-03T17:46:20.950Z,3.00
2017-09-03T17:48:49.254Z,2.90
2017-09-03T17:51:17.431Z,3.37
2017-09-03T17:53:45.612Z,3.00
2017-09-03T17:56:13.822Z,2.93
2017-09-03T17:58:42.218Z,4.40
2017-09-03T18:01:10.402Z,2.30
2017-09-03T18:03:38.560Z,2.40
2017-09-03T18:09:09.445Z,2.40
2017-09-03T18:11:37.604Z,2.90
2017-09-03T18:14:05.784Z,2.50
2017-09-03T18:16:33.954Z,3.23
2017-09-03T18:19:02.502Z,2.30
2017-09-03T18:21:30.668Z,1.90
2017-09-03T18:23:58.859Z,3.10
2017-09-03T18:26:27.015Z,2.43
2017-09-03T18:28:55.603Z,2.87
2017-09-03T18:31:26.210Z,2.73
2017-09-03T18:33:54.378Z,2.77
2017-09-03T18:36:28.162Z,3.23
2017-09-03T18:39:12.007Z,2.40
2017-09-03T18:41:40.187Z,2.47
2017-09-03T18:44:11.928Z,4.70
2017-09-03T18:46:40.111Z,3.67
2017-09-03T18:49:08.291Z,2.43
2017-09-03T18:51:40.921Z,2.67
2017-09-03T18:54:09.861Z,2.43
2017-09-03T18:56:38.030Z,4.40
2017-09-03T19:02:16.701Z,4.00
2017-09-03T19:04:45.473Z,5.33
2017-09-03T19:07:13.628Z,3.10
2017-09-03T19:09:41.794Z,4.47
2017-09-03T19:12:09.969Z,3.43
2017-09-03T19:14:38.179Z,3.47
2017-09-03T19:17:06.343Z,4.03
2017-09-03T19:19:34.516Z,3.57
2017-09-03T19:22:02.680Z,2.83
2017-09-03T19:24:30.846Z,3.83
2017-09-03T19:26:59.032Z,4.83
2017-09-03T19:29:27.185Z,6.00
2017-09-03T19:31:55.352Z,4.97
2017-09-03T19:34:23.532Z,3.90
2017-09-03T19:36:52.865Z,4.57
2017-09-03T19:39:21.042Z,5.73
2017-09-03T19:41:49.409Z,4.77
2017-09-03T19:44:17.761Z,4.43
2017-09-03T19:46:46.109Z,5.70
2017-09-03T19:49:14.477Z,4.13
2017-09-03T19:51:42.823Z,5.27
2017-09-03T19:54:10.853Z,4.50
2017-09-03T19:56:39.212Z,5.50
2017-09-03T19:59:07.567Z,4.37
2017-09-03T20:01:35.918Z,5.80
2017-09-03T20:04:04.282Z,4.97
2017-09-03T20:06:32.630Z,3.70
2017-09-03T20:09:00.984Z,4.27
2017-09-03T20:11:29.347Z,5.80
2017-09-03T20:13:57.697Z,3.83
2017-09-03T20:16:26.038Z,4.30
2017-09-03T20:18:54.411Z,4.97
2017-09-03T20:21:22.777Z,3.60
2017-09-03T20:23:51.157Z,3.50
2017-09-03T20:26:19.515Z,3.50
2017-09-03T20:28:47.861Z,4.37
2017-09-03T20:31:16.209Z,3.50
2017-09-03T20:33:44.583Z,3.57
2017-09-03T20:36:12.958Z,4.23
2017-09-03T20:38:41.541Z,4.80
2017-09-03T20:41:09.737Z,4.10
2017-09-03T20:43:38.094Z,4.20
2017-09-03T20:46:06.446Z,5.47
2017-09-03T20:48:34.813Z,4.53
2017-09-03T20:51:03.415Z,4.07
2017-09-03T20:53:31.772Z,6.20
2017-09-03T20:56:00.148Z,4.53
2017-09-03T20:58:28.498Z,5.83
2017-09-03T21:00:56.860Z,6.17
2017-09-03T21:03:25.106Z,6.03
2017-09-03T21:05:53.276Z,4.37
2017-09-03T21:08:21.440Z,4.60
2017-09-03T21:10:49.799Z,5.13
2017-09-03T21:13:18.141Z,4.77
2017-09-03T21:15:46.483Z,6.10
2017-09-03T21:18:14.839Z,3.80
2017-09-03T21:20:43.185Z,4.17
2017-09-03T21:23:11.539Z,6.30
2017-09-03T21:25:39.901Z,4.57
2017-09-03T21:28:08.249Z,5.23
2017-09-03T21:30:36.589Z,4.00
2017-09-03T21:33:04.953Z,4.87
2017-09-03T21:35:33.306Z,4.80
2017-09-03T21:38:01.664Z,6.73
2017-09-03T21:40:30.016Z,5.43
2017-09-03T21:42:58.377Z,5.50
2017-09-03T21:45:26.730Z,4.37
2017-09-03T21:47:55.092Z,5.80
2017-09-03T21:50:23.442Z,4.73
2017-09-03T21:52:51.792Z,3.90
2017-09-03T21:55:20.161Z,8.57
2017-09-03T21:57:48.512Z,4.90
2017-09-03T22:00:16.862Z,3.83
2017-09-03T22:02:45.233Z,3.50
2017-09-03T22:05:13.585Z,7.07
2017-09-03T22:07:41.939Z,5.60
2017-09-03T22:10:10.292Z,4.33
2017-09-03T22:12:38.640Z,5.40
2017-09-03T22:15:06.989Z,3.90
2017-09-03T22:17:35.613Z,4.07
2017-09-03T22:20:04.217Z,3.97
2017-09-03T22:22:32.560Z,4.37
2017-09-03T22:25:00.923Z,5.23
2017-09-03T22:27:29.271Z,4.13
2017-09-03T22:29:57.625Z,3.83
2017-09-03T22:32:25.996Z,5.73
2017-09-03T22:34:54.348Z,5.97
2017-09-03T22:37:22.706Z,4.30
2017-09-03T22:39:51.068Z,4.73
2017-09-03T22:42:19.418Z,4.87
2017-09-03T22:44:47.762Z,4.57
2017-09-03T22:47:16.149Z,6.17
2017-09-03T22:49:44.493Z,6.73
2017-09-03T22:52:12.841Z,5.43
2017-09-03T22:54:41.201Z,7.00
2017-09-03T22:57:09.550Z,6.80
2017-09-03T22:59:37.893Z,5.77
2017-09-03T23:02:06.249Z,6.87
2017-09-03T23:04:34.604Z,5.80
2017-09-03T23:07:03.985Z,4.53
2017-09-03T23:09:32.345Z,4.93
2017-09-03T23:12:00.695Z,4.30
2017-09-03T23:14:29.040Z,5.47
2017-09-03T23:16:57.409Z,4.53
2017-09-03T23:19:25.752Z,7.53
2017-09-03T23:21:54.103Z,4.73
2017-09-03T23:24:22.490Z,6.60
2017-09-03T23:26:50.840Z,4.73
2017-09-03T23:29:19.190Z,5.27
2017-09-03T23:31:47.550Z,6.50
2017-09-03T23:34:15.889Z,8.23
2017-09-03T23:36:44.236Z,4.43
2017-09-03T23:39:12.409Z,5.13
2017-09-03T23:41:40.755Z,5.53
2017-09-03T23:44:09.102Z,5.50
2017-09-03T23:46:37.461Z,4.83
2017-09-03T23:49:05.801Z,6.57
2017-09-03T23:51:34.915Z,4.93
2017-09-03T23:54:03.265Z,8.83
2017-09-03T23:56:31.608Z,5.60
2017-09-03T23:58:59.955Z,5.50
